sensor_id;sensor_type;location;lat;lon;timestamp;pressure;altitude;pressure_sealevel;temperature;humidity
28181;BME280;15464;50.988;10.318;2023-11-18T00:01:59;99766.88;;;1.30;98.24
28181;BME280;15464;50.988;10.318;2023-11-18T00:04:26;99765.66;;;1.13;98.77
28181;BME280;15464;50.988;10.318;2023-11-18T00:06:53;99770.44;;;1.01;100.00
28181;BME280;15464;50.988;10.318;2023-11-18T00:09:21;99776.59;;;1.00;100.00
28181;BME280;15464;50.988;10.318;2023-11-18T00:11:49;99772.09;;;1.05;100.00
28181;BME280;15464;50.988;10.318;2023-11-18T00:14:15;99780.78;;;1.05;100.00
28181;BME280;15464;50.988;10.318;2023-11-18T00:16:42;99782.63;;;1.02;100.00
28181;BME280;15464;50.988;10.318;2023-11-18T00:19:09;99777.50;;;0.99;100.00
28181;BME280;15464;50.988;10.318;2023-11-18T00:21:36;99780.25;;;0.94;100.00
28181;BME280;15464;50.988;10.318;2023-11-18T00:24:03;99775.88;;;0.95;100.00
28181;BME280;15464;50.988;10.318;2023-11-18T00:26:30;99775.19;;;0.90;100.00
28181;BME280;15464;50.988;10.318;2023-11-18T00:28:57;99778.91;;;0.82;100.00
28181;BME280;15464;50.988;10.318;2023-11-18T00:31:24;99771.13;;;0.81;100.00
28181;BME280;15464;50.988;10.318;2023-11-18T00:33:51;99774.34;;;0.89;100.00
28181;BME280;15464;50.988;10.318;2023-11-18T00:36:19;99773.56;;;0.87;100.00
28181;BME280;15464;50.988;10.318;2023-11-18T00:38:45;99772.56;;;0.90;100.00
28181;BME280;15464;50.988;10.318;2023-11-18T00:41:13;99775.31;;;0.87;100.00
28181;BME280;15464;50.988;10.318;2023-11-18T00:43:40;99777.19;;;0.81;100.00
28181;BME280;15464;50.988;10.318;2023-11-18T00:46:07;99779.00;;;0.79;100.00
28181;BME280;15464;50.988;10.318;2023-11-18T00:48:33;99779.22;;;0.73;100.00
28181;BME280;15464;50.988;10.318;2023-11-18T00:51:00;99783.00;;;0.63;100.00
28181;BME280;15464;50.988;10.318;2023-11-18T00:53:27;99781.41;;;0.59;100.00
28181;BME280;15464;50.988;10.318;2023-11-18T00:55:53;99773.50;;;0.62;100.00
28181;BME280;15464;50.988;10.318;2023-11-18T00:58:20;99786.53;;;0.62;100.00
28181;BME280;15464;50.988;10.318;2023-11-18T01:00:47;99786.53;;;0.62;100.00
28181;BME280;15464;50.988;10.318;2023-11-18T01:03:13;99784.63;;;0.67;100.00
28181;BME280;15464;50.988;10.318;2023-11-18T01:05:40;99789.84;;;0.67;100.00
28181;BME280;15464;50.988;10.318;2023-11-18T01:08:07;99795.16;;;0.64;100.00
28181;BME280;15464;50.988;10.318;2023-11-18T01:10:35;99802.94;;;0.66;100.00
28181;BME280;15464;50.988;10.318;2023-11-18T01:13:02;99799.31;;;0.70;100.00
28181;BME280;15464;50.988;10.318;2023-11-18T01:15:28;99801.91;;;0.71;100.00
28181;BME280;15464;50.988;10.318;2023-11-18T01:17:55;99797.81;;;0.63;100.00
28181;BME280;15464;50.988;10.318;2023-11-18T01:20:22;99798.78;;;0.60;100.00
28181;BME280;15464;50.988;10.318;2023-11-18T01:22:49;99805.78;;;0.58;100.00
28181;BME280;15464;50.988;10.318;2023-11-18T01:25:16;99799.53;;;0.64;100.00
28181;BME280;15464;50.988;10.318;2023-11-18T01:27:45;99798.66;;;0.63;100.00
28181;BME280;15464;50.988;10.318;2023-11-18T01:30:15;99796.22;;;0.59;100.00
28181;BME280;15464;50.988;10.318;2023-11-18T01:32:42;99799.69;;;0.59;100.00
28181;BME280;15464;50.988;10.318;2023-11-18T01:35:09;99803.22;;;0.57;100.00
28181;BME280;15464;50.988;10.318;2023-11-18T01:37:39;99802.41;;;0.56;100.00
28181;BME280;15464;50.988;10.318;2023-11-18T01:40:07;99808.41;;;0.58;100.00
28181;BME280;15464;50.988;10.318;2023-11-18T01:42:34;99811.00;;;0.58;100.00
28181;BME280;15464;50.988;10.318;2023-11-18T01:45:01;99816.06;;;0.63;100.00
28181;BME280;15464;50.988;10.318;2023-11-18T01:47:33;99814.25;;;0.66;100.00
28181;BME280;15464;50.988;10.318;2023-11-18T01:50:01;99820.09;;;0.74;100.00
28181;BME280;15464;50.988;10.318;2023-11-18T01:52:29;99813.16;;;0.73;100.00
28181;BME280;15464;50.988;10.318;2023-11-18T01:54:58;99809.72;;;0.71;100.00
28181;BME280;15464;50.988;10.318;2023-11-18T01:57:25;99816.03;;;0.64;100.00
28181;BME280;15464;50.988;10.318;2023-11-18T01:59:53;99821.25;;;0.64;100.00
28181;BME280;15464;50.988;10.318;2023-11-18T02:02:21;99823.09;;;0.62;100.00
28181;BME280;15464;50.988;10.318;2023-11-18T02:04:48;99830.97;;;0.61;100.00
28181;BME280;15464;50.988;10.318;2023-11-18T02:07:16;99830.19;;;0.57;100.00
28181;BME280;15464;50.988;10.318;2023-11-18T02:09:44;99831.88;;;0.58;100.00
28181;BME280;15464;50.988;10.318;2023-11-18T02:15:03;99823.53;;;0.47;100.00
28181;BME280;15464;50.988;10.318;2023-11-18T02:17:39;99825.25;;;0.48;100.00
28181;BME280;15464;50.988;10.318;2023-11-18T02:20:10;99822.69;;;0.47;100.00
28181;BME280;15464;50.988;10.318;2023-11-18T02:22:42;99829.59;;;0.49;100.00
28181;BME280;15464;50.988;10.318;2023-11-18T02:25:10;99827.81;;;0.50;100.00
28181;BME280;15464;50.988;10.318;2023-11-18T02:27:41;99837.78;;;0.37;100.00
28181;BME280;15464;50.988;10.318;2023-11-18T02:30:09;99843.06;;;0.34;100.00
28181;BME280;15464;50.988;10.318;2023-11-18T02:32:47;99834.50;;;0.30;100.00
28181;BME280;15464;50.988;10.318;2023-11-18T02:35:28;99831.81;;;0.32;100.00
28181;BME280;15464;50.988;10.318;2023-11-18T02:37:57;99827.59;;;0.28;100.00
28181;BME280;15464;50.988;10.318;2023-11-18T02:42:53;99834.59;;;0.26;100.00
28181;BME280;15464;50.988;10.318;2023-11-18T02:45:20;99834.03;;;0.16;100.00
28181;BME280;15464;50.988;10.318;2023-11-18T02:47:48;99832.28;;;0.17;100.00
28181;BME280;15464;50.988;10.318;2023-11-18T02:50:15;99832.34;;;0.14;100.00
28181;BME280;15464;50.988;10.318;2023-11-18T02:52:42;99837.53;;;0.15;100.00
28181;BME280;15464;50.988;10.318;2023-11-18T02:55:09;99834.06;;;0.15;100.00
28181;BME280;15464;50.988;10.318;2023-11-18T02:57:36;99837.69;;;0.11;100.00
28181;BME280;15464;50.988;10.318;2023-11-18T03:00:07;99836.97;;;0.06;100.00
28181;BME280;15464;50.988;10.318;2023-11-18T03:02:42;99839.59;;;0.04;100.00
28181;BME280;15464;50.988;10.318;2023-11-18T03:05:09;99847.59;;;-0.02;100.00
28181;BME280;15464;50.988;10.318;2023-11-18T03:07:41;99849.34;;;-0.03;100.00
28181;BME280;15464;50.988;10.318;2023-11-18T03:10:08;99839.75;;;-0.01;100.00
28181;BME280;15464;50.988;10.318;2023-11-18T03:12:38;99839.75;;;-0.01;100.00
28181;BME280;15464;50.988;10.318;2023-11-18T03:15:06;99831.94;;;-0.01;100.00
28181;BME280;15464;50.988;10.318;2023-11-18T03:17:35;99823.28;;;-0.03;100.00
28181;BME280;15464;50.988;10.318;2023-11-18T03:20:02;99829.31;;;-0.01;100.00
28181;BME280;15464;50.988;10.318;2023-11-18T03:22:31;99830.09;;;0.02;100.00
28181;BME280;15464;50.988;10.318;2023-11-18T03:24:58;99824.09;;;-0.01;100.00
28181;BME280;15464;50.988;10.318;2023-11-18T03:27:25;99822.47;;;-0.05;100.00
28181;BME280;15464;50.988;10.318;2023-11-18T03:29:51;99825.97;;;-0.06;100.00
28181;BME280;15464;50.988;10.318;2023-11-18T03:32:19;99824.34;;;-0.10;100.00
28181;BME280;15464;50.988;10.318;2023-11-18T03:34:45;99824.38;;;-0.11;100.00
28181;BME280;15464;50.988;10.318;2023-11-18T03:37:12;99818.31;;;-0.12;100.00
28181;BME280;15464;50.988;10.318;2023-11-18T03:39:39;99826.19;;;-0.13;100.00
28181;BME280;15464;50.988;10.318;2023-11-18T03:42:06;99816.75;;;-0.19;100.00
28181;BME280;15464;50.988;10.318;2023-11-18T03:44:32;99831.66;;;-0.22;100.00
28181;BME280;15464;50.988;10.318;2023-11-18T03:46:59;99829.09;;;-0.24;100.00
28181;BME280;15464;50.988;10.318;2023-11-18T03:49:29;99826.56;;;-0.27;100.00
28181;BME280;15464;50.988;10.318;2023-11-18T03:51:56;99834.63;;;-0.36;100.00
28181;BME280;15464;50.988;10.318;2023-11-18T03:54:22;99833.88;;;-0.39;100.00
28181;BME280;15464;50.988;10.318;2023-11-18T03:56:49;99843.50;;;-0.43;100.00
28181;BME280;15464;50.988;10.318;2023-11-18T03:59:16;99846.16;;;-0.45;100.00
28181;BME280;15464;50.988;10.318;2023-11-18T04:01:42;99841.88;;;-0.47;100.00
28181;BME280;15464;50.988;10.318;2023-11-18T04:04:09;99837.59;;;-0.50;100.00
28181;BME280;15464;50.988;10.318;2023-11-18T04:06:36;99834.97;;;-0.48;100.00
28181;BME280;15464;50.988;10.318;2023-11-18T04:09:03;99841.00;;;-0.46;100.00
28181;BME280;15464;50.988;10.318;2023-11-18T04:11:32;99840.16;;;-0.48;100.00
28181;BME280;15464;50.988;10.318;2023-11-18T04:13:59;99840.25;;;-0.51;100.00
28181;BME280;15464;50.988;10.318;2023-11-18T04:16:25;99834.28;;;-0.56;100.00
28181;BME280;15464;50.988;10.318;2023-11-18T04:18:52;99842.06;;;-0.55;100.00
28181;BME280;15464;50.988;10.318;2023-11-18T04:21:19;99840.44;;;-0.57;100.00
28181;BME280;15464;50.988;10.318;2023-11-18T04:23:45;99836.06;;;-0.57;100.00
28181;BME280;15464;50.988;10.318;2023-11-18T04:26:13;99830.88;;;-0.57;100.00
28181;BME280;15464;50.988;10.318;2023-11-18T04:28:40;99826.56;;;-0.59;100.00
28181;BME280;15464;50.988;10.318;2023-11-18T04:31:07;99825.75;;;-0.61;100.00
28181;BME280;15464;50.988;10.318;2023-11-18T04:33:33;99828.34;;;-0.61;100.00
28181;BME280;15464;50.988;10.318;2023-11-18T04:36:00;99826.72;;;-0.65;100.00
28181;BME280;15464;50.988;10.318;2023-11-18T04:38:27;99826.00;;;-0.70;100.00
28181;BME280;15464;50.988;10.318;2023-11-18T04:40:54;99825.13;;;-0.69;100.00
28181;BME280;15464;50.988;10.318;2023-11-18T04:43:22;99825.19;;;-0.72;100.00
28181;BME280;15464;50.988;10.318;2023-11-18T04:46:05;99817.41;;;-0.74;100.00
28181;BME280;15464;50.988;10.318;2023-11-18T04:48:32;99833.13;;;-0.77;100.00
28181;BME280;15464;50.988;10.318;2023-11-18T04:51:00;99827.13;;;-0.81;100.00
28181;BME280;15464;50.988;10.318;2023-11-18T04:53:27;99833.31;;;-0.85;100.00
28181;BME280;15464;50.988;10.318;2023-11-18T04:55:54;99822.84;;;-0.83;100.00
28181;BME280;15464;50.988;10.318;2023-11-18T04:58:21;99820.38;;;-0.88;100.00
28181;BME280;15464;50.988;10.318;2023-11-18T05:00:47;99825.69;;;-0.92;100.00
28181;BME280;15464;50.988;10.318;2023-11-18T05:03:16;99829.13;;;-0.92;100.00
28181;BME280;15464;50.988;10.318;2023-11-18T05:05:43;99825.81;;;-0.97;100.00
28181;BME280;15464;50.988;10.318;2023-11-18T05:08:21;99812.03;;;-1.02;100.00
28181;BME280;15464;50.988;10.318;2023-11-18T05:10:49;99824.19;;;-1.02;100.00
28181;BME280;15464;50.988;10.318;2023-11-18T05:13:17;99821.63;;;-1.04;100.00
28181;BME280;15464;50.988;10.318;2023-11-18T05:15:46;99806.13;;;-1.08;100.00
28181;BME280;15464;50.988;10.318;2023-11-18T05:18:13;99807.94;;;-1.12;100.00
28181;BME280;15464;50.988;10.318;2023-11-18T05:20:42;99806.13;;;-1.08;100.00
28181;BME280;15464;50.988;10.318;2023-11-18T05:23:10;99805.16;;;-1.04;100.00
28181;BME280;15464;50.988;10.318;2023-11-18T05:25:39;99807.06;;;-1.11;100.00
28181;BME280;15464;50.988;10.318;2023-11-18T05:28:06;99810.63;;;-1.15;100.00
28181;BME280;15464;50.988;10.318;2023-11-18T05:30:35;99805.56;;;-1.21;100.00
28181;BME280;15464;50.988;10.318;2023-11-18T05:33:03;99805.69;;;-1.26;100.00
28181;BME280;15464;50.988;10.318;2023-11-18T05:35:33;99797.91;;;-1.27;100.00
28181;BME280;15464;50.988;10.318;2023-11-18T05:38:01;99805.72;;;-1.27;100.00
28181;BME280;15464;50.988;10.318;2023-11-18T05:40:32;99800.63;;;-1.32;100.00
28181;BME280;15464;50.988;10.318;2023-11-18T05:43:02;99795.50;;;-1.35;100.00
28181;BME280;15464;50.988;10.318;2023-11-18T05:45:32;99799.91;;;-1.38;100.00
28181;BME280;15464;50.988;10.318;2023-11-18T05:48:14;99802.66;;;-1.44;100.00
28181;BME280;15464;50.988;10.318;2023-11-18T05:50:41;99802.59;;;-1.43;100.00
28181;BME280;15464;50.988;10.318;2023-11-18T05:53:11;99811.34;;;-1.45;100.00
28181;BME280;15464;50.988;10.318;2023-11-18T05:55:37;99813.97;;;-1.45;100.00
28181;BME280;15464;50.988;10.318;2023-11-18T05:58:04;99811.34;;;-1.45;100.00
28181;BME280;15464;50.988;10.318;2023-11-18T06:00:31;99796.53;;;-1.43;100.00
28181;BME280;15464;50.988;10.318;2023-11-18T06:03:06;99799.09;;;-1.40;100.00
28181;BME280;15464;50.988;10.318;2023-11-18T06:05:33;99798.25;;;-1.42;100.00
28181;BME280;15464;50.988;10.318;2023-11-18T06:08:02;99795.78;;;-1.47;100.00
28181;BME280;15464;50.988;10.318;2023-11-18T06:10:28;99801.81;;;-1.45;100.00
28181;BME280;15464;50.988;10.318;2023-11-18T06:12:57;99802.66;;;-1.44;100.00
28181;BME280;15464;50.988;10.318;2023-11-18T06:15:24;99804.34;;;-1.43;100.00
28181;BME280;15464;50.988;10.318;2023-11-18T06:17:51;99810.50;;;-1.46;100.00
28181;BME280;15464;50.988;10.318;2023-11-18T06:20:18;99813.25;;;-1.52;100.00
28181;BME280;15464;50.988;10.318;2023-11-18T06:22:46;99810.78;;;-1.58;100.00
28181;BME280;15464;50.988;10.318;2023-11-18T06:25:13;99812.56;;;-1.62;100.00
28181;BME280;15464;50.988;10.318;2023-11-18T06:27:40;99815.25;;;-1.65;100.00
28181;BME280;15464;50.988;10.318;2023-11-18T06:30:07;99819.63;;;-1.67;100.00
28181;BME280;15464;50.988;10.318;2023-11-18T06:32:34;99822.22;;;-1.65;100.00
28181;BME280;15464;50.988;10.318;2023-11-18T06:35:01;99825.63;;;-1.63;100.00
28181;BME280;15464;50.988;10.318;2023-11-18T06:37:32;99825.72;;;-1.68;100.00
28181;BME280;15464;50.988;10.318;2023-11-18T06:39:59;99820.50;;;-1.68;100.00
28181;BME280;15464;50.988;10.318;2023-11-18T06:42:26;99826.69;;;-1.72;100.00
28181;BME280;15464;50.988;10.318;2023-11-18T06:44:52;99832.78;;;-1.74;100.00
28181;BME280;15464;50.988;10.318;2023-11-18T06:47:20;99833.78;;;-1.80;100.00
28181;BME280;15464;50.988;10.318;2023-11-18T06:49:47;99830.13;;;-1.71;100.00
28181;BME280;15464;50.988;10.318;2023-11-18T06:52:18;99832.63;;;-1.67;100.00
28181;BME280;15464;50.988;10.318;2023-11-18T06:54:45;99838.78;;;-1.69;100.00
28181;BME280;15464;50.988;10.318;2023-11-18T06:57:12;99826.56;;;-1.67;100.00
28181;BME280;15464;50.988;10.318;2023-11-18T06:59:39;99827.44;;;-1.67;100.00
28181;BME280;15464;50.988;10.318;2023-11-18T07:02:05;99820.59;;;-1.71;100.00
28181;BME280;15464;50.988;10.318;2023-11-18T07:04:33;99825.81;;;-1.71;100.00
28181;BME280;15464;50.988;10.318;2023-11-18T07:06:59;99824.97;;;-1.73;100.00
28181;BME280;15464;50.988;10.318;2023-11-18T07:09:27;99825.81;;;-1.71;100.00
28181;BME280;15464;50.988;10.318;2023-11-18T07:11:54;99826.66;;;-1.70;100.00
28181;BME280;15464;50.988;10.318;2023-11-18T07:14:22;99830.13;;;-1.70;100.00
28181;BME280;15464;50.988;10.318;2023-11-18T07:16:49;99832.63;;;-1.67;100.00
28181;BME280;15464;50.988;10.318;2023-11-18T07:19:16;99844.69;;;-1.63;100.00
28181;BME280;15464;50.988;10.318;2023-11-18T07:21:49;99850.72;;;-1.62;100.00
28181;BME280;15464;50.988;10.318;2023-11-18T07:24:16;99852.41;;;-1.59;100.00
28181;BME280;15464;50.988;10.318;2023-11-18T07:26:44;99857.59;;;-1.58;100.00
28181;BME280;15464;50.988;10.318;2023-11-18T07:29:12;99861.84;;;-1.55;100.00
28181;BME280;15464;50.988;10.318;2023-11-18T07:31:39;99860.16;;;-1.56;100.00
28181;BME280;15464;50.988;10.318;2023-11-18T07:34:05;99867.78;;;-1.49;100.00
28181;BME280;15464;50.988;10.318;2023-11-18T07:36:32;99865.91;;;-1.42;100.00
28181;BME280;15464;50.988;10.318;2023-11-18T07:38:59;99867.47;;;-1.35;100.00
28181;BME280;15464;50.988;10.318;2023-11-18T07:41:33;99866.47;;;-1.28;100.00
28181;BME280;15464;50.988;10.318;2023-11-18T07:44:00;99860.13;;;-1.18;100.00
28181;BME280;15464;50.988;10.318;2023-11-18T07:46:28;99862.56;;;-1.10;100.00
28181;BME280;15464;50.988;10.318;2023-11-18T07:48:57;99860.63;;;-1.01;100.00
28181;BME280;15464;50.988;10.318;2023-11-18T07:51:24;99852.53;;;-0.90;100.00
28181;BME280;15464;50.988;10.318;2023-11-18T07:53:51;99851.47;;;-0.82;100.00
28181;BME280;15464;50.988;10.318;2023-11-18T07:56:20;99853.94;;;-0.77;100.00
28181;BME280;15464;50.988;10.318;2023-11-18T07:58:49;99862.53;;;-0.73;100.00
28181;BME280;15464;50.988;10.318;2023-11-18T08:01:18;99865.81;;;-0.65;100.00
28181;BME280;15464;50.988;10.318;2023-11-18T08:03:45;99859.56;;;-0.58;100.00
28181;BME280;15464;50.988;10.318;2023-11-18T08:06:14;99849.84;;;-0.52;100.00
28181;BME280;15464;50.988;10.318;2023-11-18T08:08:41;99843.56;;;-0.45;100.00
28181;BME280;15464;50.988;10.318;2023-11-18T08:11:10;99840.72;;;-0.37;100.00
28181;BME280;15464;50.988;10.318;2023-11-18T08:13:38;99853.69;;;-0.34;100.00
28181;BME280;15464;50.988;10.318;2023-11-18T08:16:06;99864.81;;;-0.27;100.00
28181;BME280;15464;50.988;10.318;2023-11-18T08:18:36;99868.00;;;-0.18;100.00
28181;BME280;15464;50.988;10.318;2023-11-18T08:21:03;99866.94;;;-0.11;100.00
28181;BME280;15464;50.988;10.318;2023-11-18T08:23:33;99876.34;;;-0.05;100.00
28181;BME280;15464;50.988;10.318;2023-11-18T08:26:00;99881.53;;;-0.04;100.00
28181;BME280;15464;50.988;10.318;2023-11-18T08:28:27;99883.97;;;0.03;100.00
28181;BME280;15464;50.988;10.318;2023-11-18T08:30:54;99889.13;;;0.06;100.00
28181;BME280;15464;50.988;10.318;2023-11-18T08:33:21;99877.66;;;0.11;100.00
28181;BME280;15464;50.988;10.318;2023-11-18T08:35:51;99864.47;;;0.16;100.00
28181;BME280;15464;50.988;10.318;2023-11-18T08:38:17;99864.22;;;0.25;100.00
28181;BME280;15464;50.988;10.318;2023-11-18T08:40:44;99869.28;;;0.31;100.00
28181;BME280;15464;50.988;10.318;2023-11-18T08:43:13;99870.09;;;0.31;100.00
28181;BME280;15464;50.988;10.318;2023-11-18T08:45:43;99866.47;;;0.37;100.00
28181;BME280;15464;50.988;10.318;2023-11-18T08:48:10;99853.25;;;0.43;100.00
28181;BME280;15464;50.988;10.318;2023-11-18T08:50:37;99853.94;;;0.50;100.00
28181;BME280;15464;50.988;10.318;2023-11-18T08:53:06;99840.69;;;0.56;100.00
28181;BME280;15464;50.988;10.318;2023-11-18T08:55:37;99839.69;;;0.60;100.00
28181;BME280;15464;50.988;10.318;2023-11-18T08:58:11;99831.88;;;0.58;100.00
28181;BME280;15464;50.988;10.318;2023-11-18T09:00:58;99824.88;;;0.60;100.00
28181;BME280;15464;50.988;10.318;2023-11-18T09:03:42;99824.78;;;0.63;100.00
28181;BME280;15464;50.988;10.318;2023-11-18T09:06:19;99828.84;;;0.72;100.00
28181;BME280;15464;50.988;10.318;2023-11-18T09:08:53;99826.81;;;0.81;100.00
28181;BME280;15464;50.988;10.318;2023-11-18T09:11:24;99832.56;;;0.93;100.00
28181;BME280;15464;50.988;10.318;2023-11-18T09:13:55;99825.22;;;1.04;100.00
28181;BME280;15464;50.988;10.318;2023-11-18T09:16:27;99823.97;;;1.15;100.00
28181;BME280;15464;50.988;10.318;2023-11-18T09:18:56;99836.66;;;1.26;100.00
28181;BME280;15464;50.988;10.318;2023-11-18T09:21:26;99832.34;;;1.25;100.00
28181;BME280;15464;50.988;10.318;2023-11-18T09:23:56;99838.81;;;1.40;100.00
28181;BME280;15464;50.988;10.318;2023-11-18T09:26:25;99837.53;;;1.51;100.00
28181;BME280;15464;50.988;10.318;2023-11-18T09:28:56;99845.84;;;1.62;100.00
28181;BME280;15464;50.988;10.318;2023-11-18T09:31:24;99842.84;;;1.75;100.00
28181;BME280;15464;50.988;10.318;2023-11-18T09:33:51;99842.69;;;1.79;100.00
28181;BME280;15464;50.988;10.318;2023-11-18T09:36:24;99835.34;;;1.89;100.00
28181;BME280;15464;50.988;10.318;2023-11-18T09:38:51;99839.28;;;2.00;100.00
28181;BME280;15464;50.988;10.318;2023-11-18T09:41:22;99833.91;;;2.05;100.00
28181;BME280;15464;50.988;10.318;2023-11-18T09:43:51;99837.25;;;2.09;100.00
28181;BME280;15464;50.988;10.318;2023-11-18T09:46:25;99837.19;;;2.10;100.00
28181;BME280;15464;50.988;10.318;2023-11-18T09:49:17;99830.66;;;2.22;100.00
28181;BME280;15464;50.988;10.318;2023-11-18T09:51:57;99825.09;;;2.31;100.00
28181;BME280;15464;50.988;10.318;2023-11-18T09:54:27;99819.53;;;2.38;100.00
28181;BME280;15464;50.988;10.318;2023-11-18T09:57:08;99820.81;;;2.50;100.00
28181;BME280;15464;50.988;10.318;2023-11-18T10:02:13;99823.03;;;2.61;100.00
28181;BME280;15464;50.988;10.318;2023-11-18T10:04:41;99806.94;;;2.70;100.00
28181;BME280;15464;50.988;10.318;2023-11-18T10:07:09;99808.41;;;2.77;100.00
28181;BME280;15464;50.988;10.318;2023-11-18T10:09:37;99807.41;;;2.81;100.00
28181;BME280;15464;50.988;10.318;2023-11-18T10:12:08;99816.69;;;2.88;100.00
28181;BME280;15464;50.988;10.318;2023-11-18T10:14:41;99819.41;;;2.87;100.00
28181;BME280;15464;50.988;10.318;2023-11-18T10:17:10;99819.06;;;2.94;100.00
28181;BME280;15464;50.988;10.318;2023-11-18T10:19:54;99814.78;;;2.93;100.00
28181;BME280;15464;50.988;10.318;2023-11-18T10:22:27;99816.78;;;2.87;100.00
28181;BME280;15464;50.988;10.318;2023-11-18T10:24:56;99814.63;;;2.96;100.00
28181;BME280;15464;50.988;10.318;2023-11-18T10:27:25;99811.94;;;2.98;100.00
28181;BME280;15464;50.988;10.318;2023-11-18T10:29:56;99806.72;;;2.98;100.00
28181;BME280;15464;50.988;10.318;2023-11-18T10:32:23;99791.53;;;3.06;100.00
28181;BME280;15464;50.988;10.318;2023-11-18T10:34:58;99793.81;;;3.13;100.00
28181;BME280;15464;50.988;10.318;2023-11-18T10:37:25;99791.94;;;3.17;100.00
28181;BME280;15464;50.988;10.318;2023-11-18T10:39:52;99783.75;;;3.24;100.00
28181;BME280;15464;50.988;10.318;2023-11-18T10:42:19;99778.25;;;3.31;100.00
28181;BME280;15464;50.988;10.318;2023-11-18T10:44:56;99775.38;;;3.37;98.21
28181;BME280;15464;50.988;10.318;2023-11-18T10:47:27;99779.28;;;3.47;98.95
28181;BME280;15464;50.988;10.318;2023-11-18T10:49:55;99775.28;;;3.58;99.19
28181;BME280;15464;50.988;10.318;2023-11-18T10:52:24;99766.00;;;3.70;98.62
28181;BME280;15464;50.988;10.318;2023-11-18T10:54:53;99764.63;;;3.82;98.04
28181;BME280;15464;50.988;10.318;2023-11-18T10:57:23;99757.25;;;3.90;99.23
28181;BME280;15464;50.988;10.318;2023-11-18T11:00:01;99744.50;;;4.01;98.40
28181;BME280;15464;50.988;10.318;2023-11-18T11:02:40;99747.41;;;4.14;93.05
28181;BME280;15464;50.988;10.318;2023-11-18T11:05:08;99750.38;;;4.25;95.48
28181;BME280;15464;50.988;10.318;2023-11-18T11:07:48;99747.19;;;4.37;95.85
28181;BME280;15464;50.988;10.318;2023-11-18T11:10:16;99737.16;;;4.45;88.78
28181;BME280;15464;50.988;10.318;2023-11-18T11:12:51;99748.94;;;4.55;89.83
28181;BME280;15464;50.988;10.318;2023-11-18T11:15:26;99745.56;;;4.70;92.21
28181;BME280;15464;50.988;10.318;2023-11-18T11:17:58;99732.00;;;4.79;85.24
28181;BME280;15464;50.988;10.318;2023-11-18T11:20:39;99740.13;;;4.92;87.79
28181;BME280;15464;50.988;10.318;2023-11-18T11:23:24;99739.50;;;5.04;86.53
28181;BME280;15464;50.988;10.318;2023-11-18T11:26:11;99732.59;;;5.19;87.81
28181;BME280;15464;50.988;10.318;2023-11-18T11:28:43;99719.59;;;5.33;86.86
28181;BME280;15464;50.988;10.318;2023-11-18T11:34:03;99698.44;;;5.52;84.57
28181;BME280;15464;50.988;10.318;2023-11-18T11:36:48;99697.91;;;5.45;82.18
28181;BME280;15464;50.988;10.318;2023-11-18T11:39:19;99692.66;;;5.45;82.92
28181;BME280;15464;50.988;10.318;2023-11-18T11:41:53;99693.97;;;5.54;84.80
28181;BME280;15464;50.988;10.318;2023-11-18T11:44:24;99693.72;;;5.58;84.03
28181;BME280;15464;50.988;10.318;2023-11-18T11:47:00;99696.28;;;5.60;84.18
28181;BME280;15464;50.988;10.318;2023-11-18T11:49:36;99696.03;;;5.64;84.40
28181;BME280;15464;50.988;10.318;2023-11-18T11:52:16;99696.47;;;5.73;84.37
28181;BME280;15464;50.988;10.318;2023-11-18T11:55:09;99690.28;;;5.74;82.01
28181;BME280;15464;50.988;10.318;2023-11-18T11:57:39;99667.78;;;5.84;84.68
28181;BME280;15464;50.988;10.318;2023-11-18T12:00:09;99655.53;;;5.83;83.97
28181;BME280;15464;50.988;10.318;2023-11-18T12:02:49;99641.47;;;5.84;82.86
28181;BME280;15464;50.988;10.318;2023-11-18T12:05:17;99645.56;;;5.89;82.87
28181;BME280;15464;50.988;10.318;2023-11-18T12:07:52;99621.78;;;5.91;82.54
28181;BME280;15464;50.988;10.318;2023-11-18T12:10:32;99611.69;;;5.99;84.08
28181;BME280;15464;50.988;10.318;2023-11-18T12:13:09;99605.47;;;6.00;81.85
28181;BME280;15464;50.988;10.318;2023-11-18T12:15:51;99601.41;;;5.94;82.71
28181;BME280;15464;50.988;10.318;2023-11-18T12:18:23;99601.75;;;6.04;81.47
28181;BME280;15464;50.988;10.318;2023-11-18T12:20:51;99615.34;;;6.12;82.80
28181;BME280;15464;50.988;10.318;2023-11-18T12:23:22;99634.34;;;6.17;83.02
28181;BME280;15464;50.988;10.318;2023-11-18T12:25:53;99637.38;;;6.25;82.87
28181;BME280;15464;50.988;10.318;2023-11-18T12:28:25;99634.00;;;6.23;82.07
28181;BME280;15464;50.988;10.318;2023-11-18T12:30:57;99628.56;;;6.26;82.89
28181;BME280;15464;50.988;10.318;2023-11-18T12:41:40;99625.00;;;6.27;82.48
28181;BME280;15464;50.988;10.318;2023-11-18T12:44:30;99628.75;;;6.23;82.33
28181;BME280;15464;50.988;10.318;2023-11-18T12:47:02;99624.31;;;6.24;82.38
28181;BME280;15464;50.988;10.318;2023-11-18T12:49:42;99620.41;;;6.15;81.57
28181;BME280;15464;50.988;10.318;2023-11-18T12:52:12;99631.56;;;6.04;82.60
28181;BME280;15464;50.988;10.318;2023-11-18T12:54:44;99612.53;;;5.99;81.66
28181;BME280;15464;50.988;10.318;2023-11-18T12:57:20;99612.25;;;5.73;81.38
28181;BME280;15464;50.988;10.318;2023-11-18T12:59:49;99613.44;;;5.83;83.37
28181;BME280;15464;50.988;10.318;2023-11-18T13:02:16;99618.53;;;5.86;83.25
28181;BME280;15464;50.988;10.318;2023-11-18T13:04:46;99604.31;;;6.05;84.22
28181;BME280;15464;50.988;10.318;2023-11-18T13:07:15;99601.06;;;6.16;83.70
28181;BME280;15464;50.988;10.318;2023-11-18T13:09:43;99601.75;;;6.04;83.92
28181;BME280;15464;50.988;10.318;2023-11-18T13:12:13;99597.50;;;6.01;84.07
28181;BME280;15464;50.988;10.318;2023-11-18T13:14:46;99597.56;;;6.00;84.85
28181;BME280;15464;50.988;10.318;2023-11-18T13:17:17;99589.25;;;6.07;84.87
28181;BME280;15464;50.988;10.318;2023-11-18T13:19:44;99597.56;;;6.00;84.14